Time;durP1;ratioP1;P1;durP2;ratioP2;P2;SDS_P1;SDS_P2;PMS_P1;PMS_P2;Temp;Humidity;BMP_temperature;BMP_pressure;BME280_temperature;BME280_humidity;BME280_pressure;Samples;Min_cycle;Max_cycle;Signal;HPM_P1;HPM_P2
2024/03/07 00:05:29;;;;;;;20.20;14.20;;;4.40;99.90;;;;;;12435923;28;20049;-35
2024/03/07 00:11:31;;;;;;;22.70;13.82;;;4.30;99.90;;;;;;12430740;28;20834;-36
2024/03/07 00:17:34;;;;;;;20.38;13.68;;;4.20;99.90;;;;;;12435151;28;20057;-35
2024/03/07 00:23:37;;;;;;;22.17;14.90;;;4.10;99.90;;;;;;12435266;28;20521;-35
2024/03/07 00:29:39;;;;;;;20.05;14.52;;;4.00;99.90;;;;;;12429031;28;20057;-36
2024/03/07 00:35:41;;;;;;;21.20;14.27;;;3.90;99.90;;;;;;12432961;28;20049;-36
2024/03/07 00:41:43;;;;;;;20.38;14.93;;;3.90;99.90;;;;;;12390303;28;20046;-36
2024/03/07 00:47:45;;;;;;;19.73;14.50;;;3.60;99.90;;;;;;12394079;28;20042;-35
2024/03/07 00:53:47;;;;;;;23.02;15.20;;;3.50;99.90;;;;;;12409338;28;20053;-35
2024/03/07 00:59:49;;;;;;;22.73;14.90;;;3.40;99.90;;;;;;12408722;28;20148;-35
2024/03/07 01:05:51;;;;;;;17.63;13.27;;;3.50;99.90;;;;;;12412914;28;20061;-35
2024/03/07 01:11:53;;;;;;;21.98;13.73;;;3.60;99.90;;;;;;12411149;28;20418;-35
2024/03/07 01:17:54;;;;;;;21.40;13.93;;;3.40;99.90;;;;;;12415962;28;20050;-35
2024/03/07 01:23:56;;;;;;;22.45;15.90;;;3.30;99.90;;;;;;12418737;28;20050;-35
2024/03/07 01:29:58;;;;;;;23.95;16.20;;;3.20;99.90;;;;;;12389624;28;20042;-35
2024/03/07 01:36:00;;;;;;;24.35;15.43;;;3.00;99.90;;;;;;12407762;28;20058;-35
2024/03/07 01:42:02;;;;;;;22.83;15.43;;;2.90;99.90;;;;;;12407634;28;20069;-35
2024/03/07 01:48:05;;;;;;;22.35;16.10;;;2.80;99.90;;;;;;12419586;28;20077;-36
2024/03/07 01:54:09;;;;;;;30.80;18.37;;;2.70;99.90;;;;;;12430530;28;20072;-35
2024/03/07 02:00:11;;;;;;;23.48;16.00;;;2.70;99.90;;;;;;12426018;28;20400;-35
2024/03/07 02:06:14;;;;;;;27.50;17.60;;;2.70;99.90;;;;;;12428290;28;20464;-35
2024/03/07 02:12:16;;;;;;;27.65;16.45;;;2.60;99.90;;;;;;12439212;28;20137;-35
2024/03/07 02:18:18;;;;;;;25.52;17.13;;;2.60;99.90;;;;;;12436461;28;20053;-35
2024/03/07 02:24:21;;;;;;;26.65;17.58;;;2.60;99.90;;;;;;12434134;28;20580;-35
2024/03/07 02:30:22;;;;;;;24.92;17.63;;;2.50;99.90;;;;;;12436574;28;20133;-35
2024/03/07 02:36:24;;;;;;;28.52;18.02;;;2.50;99.90;;;;;;12441239;28;20101;-35
2024/03/07 02:42:26;;;;;;;26.05;17.55;;;2.30;99.90;;;;;;12429179;28;20469;-35
2024/03/07 02:48:30;;;;;;;27.85;19.02;;;2.20;99.90;;;;;;12425314;28;20133;-35
2024/03/07 02:54:32;;;;;;;29.48;19.90;;;2.20;99.90;;;;;;12428486;28;20474;-35
2024/03/07 03:00:34;;;;;;;27.25;19.23;;;2.10;99.90;;;;;;12419868;28;20069;-35
2024/03/07 03:06:36;;;;;;;26.95;19.05;;;2.00;99.90;;;;;;12420593;28;20057;-35
2024/03/07 03:12:38;;;;;;;27.58;19.60;;;2.00;99.90;;;;;;12416796;28;20080;-35
2024/03/07 03:18:40;;;;;;;27.23;19.00;;;1.90;99.90;;;;;;12397016;28;20089;-35
2024/03/07 03:24:42;;;;;;;27.45;18.58;;;1.80;99.90;;;;;;12425065;28;20058;-35
2024/03/07 03:30:44;;;;;;;26.27;17.17;;;1.70;99.90;;;;;;12410992;28;20439;-35
2024/03/07 03:36:46;;;;;;;24.48;16.55;;;1.70;99.90;;;;;;12423571;28;20573;-35
2024/03/07 03:42:48;;;;;;;26.83;16.63;;;1.70;99.90;;;;;;12403486;28;20111;-35
2024/03/07 03:48:50;;;;;;;23.95;16.65;;;1.80;99.90;;;;;;12429735;28;20133;-35
2024/03/07 03:54:52;;;;;;;25.80;17.27;;;1.70;99.90;;;;;;12426764;28;20053;-35
2024/03/07 04:00:54;;;;;;;29.70;17.55;;;1.60;99.90;;;;;;12427681;28;20058;-35
2024/03/07 04:06:56;;;;;;;25.02;17.10;;;1.40;99.90;;;;;;12418112;28;20128;-35
2024/03/07 04:12:58;;;;;;;25.55;17.67;;;1.40;99.90;;;;;;12431354;28;20423;-35
2024/03/07 04:19:00;;;;;;;27.95;17.05;;;1.40;99.90;;;;;;12436950;28;20426;-35
2024/03/07 04:25:02;;;;;;;24.60;16.52;;;1.40;99.90;;;;;;12429005;28;20552;-35
2024/03/07 04:31:04;;;;;;;27.17;17.17;;;1.40;99.90;;;;;;12414120;28;20057;-35
2024/03/07 04:37:06;;;;;;;24.90;17.23;;;1.50;99.90;;;;;;12427461;28;20145;-38
2024/03/07 04:43:08;;;;;;;27.40;17.02;;;1.60;99.90;;;;;;12430896;28;20057;-35
2024/03/07 04:49:10;;;;;;;24.92;15.77;;;1.70;99.90;;;;;;12413864;28;20363;-35
2024/03/07 04:55:12;;;;;;;27.23;16.73;;;1.70;99.90;;;;;;12385417;28;20091;-34
2024/03/07 05:01:15;;;;;;;28.33;17.20;;;1.70;99.90;;;;;;12419546;28;20160;-35
2024/03/07 05:07:16;;;;;;;25.33;16.58;;;1.70;99.90;;;;;;12408410;28;20176;-35
2024/03/07 05:13:18;;;;;;;26.05;15.65;;;1.80;99.90;;;;;;12424875;28;20081;-34
2024/03/07 05:19:20;;;;;;;26.75;15.98;;;1.70;99.90;;;;;;12399068;28;20514;-34
2024/03/07 05:25:22;;;;;;;25.50;15.43;;;1.70;99.90;;;;;;12415101;28;20057;-35
2024/03/07 05:31:24;;;;;;;22.40;15.70;;;1.70;99.90;;;;;;12416169;28;20084;-35
2024/03/07 05:37:26;;;;;;;26.83;14.60;;;1.90;99.90;;;;;;12422568;28;20141;-34
2024/03/07 05:43:29;;;;;;;21.73;14.35;;;1.90;99.90;;;;;;12423157;28;20144;-35
2024/03/07 05:49:31;;;;;;;24.00;14.15;;;1.80;99.90;;;;;;12426465;28;20183;-34
2024/03/07 05:55:33;;;;;;;20.77;14.13;;;1.80;99.90;;;;;;12442092;28;20410;-35
2024/03/07 06:01:36;;;;;;;21.25;14.48;;;1.80;99.90;;;;;;12413710;28;20073;-35
2024/03/07 06:07:38;;;;;;;22.05;14.73;;;1.90;99.90;;;;;;12434753;28;20057;-34
2024/03/07 06:13:40;;;;;;;20.90;14.40;;;1.80;99.90;;;;;;12429736;28;20165;-34
2024/03/07 06:19:42;;;;;;;22.50;14.15;;;1.90;99.90;;;;;;12423047;28;20529;-35
2024/03/07 06:25:50;;;;;;;21.15;15.15;;;2.00;99.90;;;;;;12436975;28;20053;-35
2024/03/07 06:31:53;;;;;;;24.67;17.10;;;2.00;99.90;;;;;;12436736;28;20601;-35
2024/03/07 06:37:55;;;;;;;25.53;16.70;;;1.90;99.90;;;;;;12437395;28;20061;-35
2024/03/07 06:43:57;;;;;;;24.65;15.68;;;2.00;99.90;;;;;;12432246;28;20049;-35
2024/03/07 06:49:59;;;;;;;24.75;16.52;;;2.00;99.90;;;;;;12416901;28;20046;-34
2024/03/07 06:56:01;;;;;;;23.55;17.00;;;1.90;99.90;;;;;;12422307;28;20481;-35
2024/03/07 07:02:03;;;;;;;23.52;16.65;;;2.00;99.90;;;;;;12417662;28;20570;-34
2024/03/07 07:08:06;;;;;;;28.20;18.83;;;2.00;99.90;;;;;;12415884;28;20081;-35
2024/03/07 07:14:08;;;;;;;26.88;18.35;;;2.10;99.90;;;;;;12421550;28;20050;-35
2024/03/07 07:20:13;;;;;;;26.23;18.58;;;2.30;99.90;;;;;;12401803;28;20133;-35
2024/03/07 07:26:15;;;;;;;30.27;18.63;;;2.50;99.90;;;;;;12416790;28;20136;-35
2024/03/07 07:32:17;;;;;;;32.90;20.55;;;2.80;99.90;;;;;;12429373;28;20103;-35
2024/03/07 07:38:19;;;;;;;28.35;20.02;;;2.80;99.90;;;;;;12413018;28;20058;-35
2024/03/07 07:44:21;;;;;;;28.92;20.98;;;2.80;99.90;;;;;;12420063;28;20065;-34
2024/03/07 07:50:24;;;;;;;28.63;20.90;;;2.80;99.90;;;;;;12399109;28;20053;-34
2024/03/07 07:56:28;;;;;;;36.72;24.10;;;2.70;99.90;;;;;;12432929;28;20521;-35
2024/03/07 08:02:30;;;;;;;40.53;28.77;;;2.60;99.90;;;;;;12435822;28;20981;-35
2024/03/07 08:08:33;;;;;;;43.97;29.83;;;2.60;99.90;;;;;;12432215;28;20049;-35
2024/03/07 08:14:35;;;;;;;43.22;32.20;;;2.70;99.90;;;;;;12429330;28;20180;-35
2024/03/07 08:20:38;;;;;;;49.88;31.08;;;2.70;99.90;;;;;;12439707;28;20410;-35
2024/03/07 08:26:44;;;;;;;43.67;30.97;;;2.70;99.90;;;;;;12411757;28;20529;-35
2024/03/07 08:32:54;;;;;;;50.53;33.10;;;2.90;99.90;;;;;;12431247;28;20491;-35
2024/03/07 08:38:56;;;;;;;49.88;35.63;;;2.80;99.90;;;;;;12437975;28;20038;-35
2024/03/07 08:44:59;;;;;;;43.35;33.55;;;2.70;99.90;;;;;;12429450;28;20099;-35
2024/03/07 08:51:01;;;;;;;48.65;32.90;;;2.70;99.90;;;;;;12394058;28;20057;-34
2024/03/07 08:57:04;;;;;;;40.13;31.73;;;2.70;99.90;;;;;;12408131;28;20053;-35
2024/03/07 09:03:09;;;;;;;38.28;29.98;;;2.70;99.90;;;;;;12419814;28;20101;-35
2024/03/07 09:09:14;;;;;;;43.67;31.38;;;2.80;99.90;;;;;;12407011;28;20053;-35
2024/03/07 09:15:17;;;;;;;44.33;32.10;;;2.90;99.90;;;;;;12414194;28;20081;-35
2024/03/07 09:21:20;;;;;;;46.40;30.02;;;3.00;99.90;;;;;;12396698;28;20108;-35
2024/03/07 09:27:22;;;;;;;52.30;39.50;;;3.00;99.90;;;;;;12409538;28;20046;-34
2024/03/07 09:33:24;;;;;;;50.85;43.15;;;3.10;99.90;;;;;;12395490;28;20137;-35
2024/03/07 09:39:31;;;;;;;54.10;46.45;;;3.20;99.90;;;;;;12415357;28;20057;-34
2024/03/07 09:45:34;;;;;;;52.22;38.50;;;3.20;99.90;;;;;;12415183;28;20532;-35
2024/03/07 09:51:37;;;;;;;57.05;41.65;;;3.20;99.90;;;;;;12426034;28;20057;-35
2024/03/07 09:57:39;;;;;;;53.58;43.85;;;3.20;99.90;;;;;;12426363;28;20091;-35
2024/03/07 10:03:44;;;;;;;58.50;45.97;;;3.30;99.90;;;;;;12429940;28;20058;-35
2024/03/07 10:09:49;;;;;;;49.85;42.20;;;3.30;99.90;;;;;;12428801;28;20045;-35
2024/03/07 10:15:52;;;;;;;59.33;48.17;;;3.40;99.90;;;;;;12432261;28;20100;-35
2024/03/07 10:21:59;;;;;;;57.70;47.30;;;3.50;99.90;;;;;;12435974;28;20058;-35
2024/03/07 10:28:03;;;;;;;60.67;44.13;;;3.60;99.90;;;;;;12434616;28;20100;-35
2024/03/07 10:34:08;;;;;;;65.70;50.03;;;3.80;99.90;;;;;;12432859;28;20072;-35
2024/03/07 10:40:17;;;;;;;61.58;52.95;;;3.90;99.90;;;;;;12440067;28;20081;-35
2024/03/07 10:46:21;;;;;;;68.35;53.45;;;4.20;99.90;;;;;;12440440;28;20072;-35
2024/03/07 10:52:39;;;;;;;82.33;73.77;;;4.40;99.90;;;;;;12418311;28;20096;-36
2024/03/07 10:58:56;;;;;;;80.68;72.38;;;4.30;99.90;;;;;;12415432;28;20297;-34
2024/03/07 11:04:59;;;;;;;83.30;75.07;;;4.50;99.90;;;;;;12421848;28;20046;-35
2024/03/07 11:11:01;;;;;;;77.85;68.43;;;4.60;99.90;;;;;;12409723;28;20050;-35
2024/03/07 11:17:03;;;;;;;80.82;72.75;;;4.60;99.90;;;;;;12426584;28;20052;-35
2024/03/07 11:23:41;;;;;;;75.07;67.13;;;4.70;99.90;;;;;;12416272;28;20046;-35
2024/03/07 11:29:52;;;;;;;72.53;64.68;;;4.50;99.90;;;;;;12409763;28;20039;-35
2024/03/07 11:35:58;;;;;;;63.53;56.67;;;4.70;99.90;;;;;;12417306;28;20058;-35
2024/03/07 11:42:00;;;;;;;70.75;56.67;;;4.70;99.90;;;;;;12395087;28;20076;-35
2024/03/07 11:54:14;;;;;;;68.22;60.85;;;4.90;99.90;;;;;;12415825;28;20049;-35
2024/03/07 12:00:18;;;;;;;79.35;62.05;;;5.20;99.90;;;;;;12415990;28;20552;-35
2024/03/07 12:06:20;;;;;;;74.97;64.82;;;5.30;99.90;;;;;;12403634;28;20140;-36
2024/03/07 12:12:24;;;;;;;67.28;60.13;;;5.60;99.90;;;;;;12399301;28;20046;-36
2024/03/07 12:18:27;;;;;;;65.30;54.90;;;5.80;99.90;;;;;;12417010;28;20052;-36
2024/03/07 12:24:30;;;;;;;81.30;73.22;;;6.30;99.90;;;;;;12420947;28;20140;-35
2024/03/07 12:30:33;;;;;;;80.65;72.63;;;6.70;99.90;;;;;;12394022;28;20065;-35
2024/03/07 12:36:45;;;;;;;81.72;74.03;;;6.50;99.90;;;;;;12396212;28;20141;-35
2024/03/07 12:42:48;;;;;;;79.43;72.13;;;6.80;99.90;;;;;;12421663;28;20061;-36
2024/03/07 12:48:49;;;;;;;64.22;57.60;;;6.60;99.90;;;;;;12428448;28;20207;-35
2024/03/07 12:54:54;;;;;;;53.45;47.58;;;6.50;99.90;;;;;;12430183;28;20042;-36
2024/03/07 13:00:56;;;;;;;53.87;48.10;;;6.40;99.90;;;;;;12435122;28;20069;-35
2024/03/07 13:06:59;;;;;;;48.25;41.50;;;6.40;99.90;;;;;;12424634;28;20494;-35
2024/03/07 13:13:02;;;;;;;47.75;38.47;;;6.40;99.90;;;;;;12433923;28;20045;-35
2024/03/07 13:19:04;;;;;;;44.40;35.50;;;6.50;99.90;;;;;;12431207;28;20141;-35
2024/03/07 13:25:13;;;;;;;45.28;36.58;;;6.50;99.90;;;;;;12409582;28;20105;-35
2024/03/07 13:31:18;;;;;;;39.58;32.22;;;6.50;99.90;;;;;;12428823;28;20083;-35
2024/03/07 13:37:20;;;;;;;44.30;33.00;;;6.30;99.90;;;;;;12422585;28;20069;-35
2024/03/07 13:43:22;;;;;;;37.63;30.38;;;6.60;99.90;;;;;;12408627;28;21407;-35
2024/03/07 13:49:27;;;;;;;35.58;27.15;;;6.40;99.90;;;;;;12411415;28;20054;-36
2024/03/07 13:55:48;;;;;;;36.20;27.40;;;6.50;99.90;;;;;;12409190;28;20050;-35
2024/03/07 14:02:09;;;;;;;41.25;27.90;;;6.40;99.90;;;;;;12432254;28;20769;-35
2024/03/07 14:08:20;;;;;;;38.08;25.70;;;6.50;99.90;;;;;;12445178;28;20386;-36
2024/03/07 14:14:43;;;;;;;34.10;25.92;;;6.40;99.90;;;;;;12440547;28;20471;-36
2024/03/07 14:21:27;;;;;;;42.53;27.15;;;6.50;99.90;;;;;;12441457;28;20042;-35
2024/03/07 14:27:35;;;;;;;40.72;26.35;;;6.50;99.90;;;;;;12436621;28;20046;-35
2024/03/07 14:34:14;;;;;;;40.30;25.85;;;6.60;99.90;;;;;;12433167;28;20057;-36
2024/03/07 14:40:16;;;;;;;39.80;27.75;;;6.90;99.90;;;;;;12415766;28;20133;-35
2024/03/07 14:46:19;;;;;;;39.33;28.92;;;6.70;99.90;;;;;;12388575;28;20082;-35
2024/03/07 14:52:22;;;;;;;35.43;25.67;;;6.60;99.90;;;;;;12432444;28;20462;-35
2024/03/07 14:58:24;;;;;;;35.15;25.15;;;6.80;99.90;;;;;;12431498;28;20525;-35
2024/03/07 15:04:31;;;;;;;31.33;24.92;;;7.10;99.90;;;;;;12428625;28;20088;-35
2024/03/07 15:10:35;;;;;;;32.97;24.75;;;7.00;99.90;;;;;;12431297;28;20042;-36
2024/03/07 15:16:38;;;;;;;32.00;21.35;;;7.10;99.90;;;;;;12425138;28;20124;-36
2024/03/07 15:22:46;;;;;;;30.08;22.77;;;7.20;99.90;;;;;;12436320;28;20108;-35
2024/03/07 15:28:48;;;;;;;29.58;20.05;;;7.30;99.90;;;;;;12419789;28;20630;-35
2024/03/07 15:34:50;;;;;;;30.75;25.63;;;7.50;99.90;;;;;;12428827;28;20092;-35
2024/03/07 15:41:02;;;;;;;35.40;28.27;;;7.70;99.90;;;;;;12432368;28;20551;-36
2024/03/07 15:47:06;;;;;;;33.17;29.42;;;7.30;99.90;;;;;;12430969;28;20088;-35
2024/03/07 15:53:08;;;;;;;29.63;26.50;;;7.10;99.90;;;;;;12415413;28;20050;-36
2024/03/07 15:59:11;;;;;;;30.20;27.02;;;6.80;99.90;;;;;;12419008;28;20058;-35
2024/03/07 16:05:15;;;;;;;31.80;25.20;;;6.60;99.90;;;;;;12432262;28;20558;-36
2024/03/07 16:11:23;;;;;;;31.42;25.27;;;6.50;99.90;;;;;;12434508;28;20704;-35
2024/03/07 16:17:26;;;;;;;33.65;23.83;;;6.40;99.90;;;;;;12430754;28;20108;-35
2024/03/07 16:23:28;;;;;;;29.50;21.95;;;6.30;99.90;;;;;;12431173;28;20054;-35
2024/03/07 16:29:30;;;;;;;24.50;21.08;;;6.30;99.90;;;;;;12431019;28;20046;-36
2024/03/07 16:35:31;;;;;;;26.90;21.17;;;6.20;99.90;;;;;;12424807;28;20122;-35
2024/03/07 16:41:33;;;;;;;24.60;20.23;;;6.30;99.90;;;;;;12421930;28;20058;-35
2024/03/07 16:47:44;;;;;;;29.05;21.83;;;6.20;99.90;;;;;;12429684;28;20041;-35
2024/03/07 16:53:46;;;;;;;27.02;20.08;;;6.10;99.90;;;;;;12431044;28;20418;-35
2024/03/07 16:59:50;;;;;;;26.13;20.48;;;6.00;99.90;;;;;;12420490;28;20050;-35
2024/03/07 17:05:52;;;;;;;28.23;21.90;;;5.90;99.90;;;;;;12426978;28;20136;-35
2024/03/07 17:11:54;;;;;;;29.23;21.58;;;5.90;99.90;;;;;;12431253;28;20137;-35
2024/03/07 17:17:56;;;;;;;28.85;22.15;;;5.80;99.90;;;;;;12428811;28;20521;-35
2024/03/07 17:24:00;;;;;;;28.85;20.85;;;5.60;99.90;;;;;;12415586;28;20046;-35
2024/03/07 17:30:06;;;;;;;29.23;20.03;;;5.50;99.90;;;;;;12443984;28;20077;-35
2024/03/07 17:36:09;;;;;;;25.15;19.15;;;5.60;99.90;;;;;;12418778;28;20077;-35
2024/03/07 17:42:11;;;;;;;24.00;19.23;;;5.40;99.90;;;;;;12443287;28;20537;-35
2024/03/07 17:48:13;;;;;;;27.05;18.10;;;5.30;99.90;;;;;;12445357;28;20184;-35
2024/03/07 17:54:15;;;;;;;24.23;18.35;;;5.30;99.90;;;;;;12439243;28;20532;-35
2024/03/07 18:00:26;;;;;;;26.42;18.63;;;5.20;99.90;;;;;;12443337;28;20081;-35
2024/03/07 18:06:28;;;;;;;24.33;18.10;;;5.00;99.90;;;;;;12441155;28;20128;-35
2024/03/07 18:12:30;;;;;;;28.33;17.20;;;4.90;99.90;;;;;;12429889;28;20535;-36
2024/03/07 18:18:32;;;;;;;28.25;18.65;;;4.90;99.90;;;;;;12444216;28;20082;-35
2024/03/07 18:24:35;;;;;;;28.77;17.50;;;4.80;99.90;;;;;;12440817;28;20053;-35
2024/03/07 18:30:36;;;;;;;23.40;17.05;;;4.80;99.90;;;;;;12440100;28;20061;-35
2024/03/07 18:36:41;;;;;;;27.88;18.10;;;4.70;99.90;;;;;;12435852;28;20053;-35
2024/03/07 18:42:44;;;;;;;27.13;16.42;;;4.70;99.90;;;;;;12441166;28;20050;-35
2024/03/07 18:48:48;;;;;;;28.17;17.17;;;4.60;99.90;;;;;;12437568;28;20392;-35
2024/03/07 18:54:50;;;;;;;28.30;16.52;;;4.60;99.90;;;;;;12440062;28;20129;-35
2024/03/07 19:00:52;;;;;;;25.00;15.60;;;4.50;99.90;;;;;;12439176;28;20471;-35
2024/03/07 19:06:57;;;;;;;26.83;15.32;;;4.50;99.90;;;;;;12440140;28;20053;-35
2024/03/07 19:12:59;;;;;;;26.38;15.90;;;4.50;99.90;;;;;;12434511;28;20038;-35
2024/03/07 19:19:01;;;;;;;25.95;15.98;;;4.40;99.90;;;;;;12438501;28;20081;-35
2024/03/07 19:25:04;;;;;;;27.25;15.45;;;4.30;99.90;;;;;;12428826;28;20046;-36
2024/03/07 19:31:09;;;;;;;24.55;14.98;;;4.30;99.90;;;;;;12436729;28;20141;-35
2024/03/07 19:37:11;;;;;;;24.10;15.30;;;4.10;99.90;;;;;;12434740;28;20392;-35
2024/03/07 19:43:15;;;;;;;22.27;14.90;;;3.90;99.90;;;;;;12428461;28;20053;-36
2024/03/07 19:49:17;;;;;;;22.27;15.37;;;3.80;99.90;;;;;;12398249;28;20049;-35
2024/03/07 19:55:19;;;;;;;26.70;15.55;;;3.60;99.90;;;;;;12418478;28;20399;-35
2024/03/07 20:01:21;;;;;;;20.95;15.00;;;3.40;99.90;;;;;;12385629;28;20173;-35
2024/03/07 20:07:24;;;;;;;21.98;14.15;;;3.30;99.90;;;;;;12434895;28;20501;-35
2024/03/07 20:13:26;;;;;;;24.35;14.77;;;3.30;99.90;;;;;;12419440;28;20069;-35
2024/03/07 20:19:28;;;;;;;25.10;14.07;;;3.20;99.90;;;;;;12404258;28;20554;-35
2024/03/07 20:25:31;;;;;;;22.60;14.52;;;3.00;99.90;;;;;;12424006;28;20084;-35
2024/03/07 20:31:33;;;;;;;24.60;13.57;;;3.00;99.90;;;;;;12418068;28;20545;-35
2024/03/07 20:37:35;;;;;;;23.33;14.65;;;2.90;99.90;;;;;;12416916;28;20137;-35
2024/03/07 20:43:37;;;;;;;22.67;13.80;;;2.80;99.90;;;;;;12407980;28;20041;-35
2024/03/07 20:49:39;;;;;;;24.42;14.35;;;2.70;99.90;;;;;;12407909;28;20132;-35
2024/03/07 20:55:42;;;;;;;21.10;13.45;;;2.70;99.90;;;;;;12433195;28;20073;-35
2024/03/07 21:01:47;;;;;;;22.55;14.05;;;2.70;99.90;;;;;;12434172;28;20053;-35
2024/03/07 21:07:50;;;;;;;23.98;14.52;;;2.60;99.90;;;;;;12426614;28;20061;-35
2024/03/07 21:13:54;;;;;;;27.02;14.65;;;2.50;99.90;;;;;;12432282;28;20080;-35
2024/03/07 21:19:55;;;;;;;23.83;14.45;;;2.40;99.90;;;;;;12430078;28;20487;-36
2024/03/07 21:25:57;;;;;;;29.48;14.88;;;2.40;99.90;;;;;;12438602;28;20097;-35
2024/03/07 21:31:59;;;;;;;25.58;15.65;;;2.30;99.90;;;;;;12425904;28;20136;-35
2024/03/07 21:38:01;;;;;;;30.70;17.90;;;2.20;99.90;;;;;;12424879;28;20087;-35
2024/03/07 21:44:04;;;;;;;32.55;16.13;;;2.20;99.90;;;;;;12435835;28;20085;-35
2024/03/07 21:50:16;;;;;;;29.05;15.80;;;2.10;99.90;;;;;;12433119;28;20163;-35
2024/03/07 21:56:29;;;;;;;20.57;13.03;;;2.00;99.90;;;;;;12433565;28;20418;-35
2024/03/07 22:02:31;;;;;;;24.98;12.93;;;2.00;99.90;;;;;;12422386;28;20216;-35
2024/03/07 22:08:51;;;;;;;25.65;12.38;;;1.90;99.90;;;;;;12426826;28;20045;-35
2024/03/07 22:14:55;;;;;;;27.83;14.55;;;1.90;99.90;;;;;;12435293;28;20070;-35
2024/03/07 22:20:58;;;;;;;26.20;13.93;;;1.70;99.90;;;;;;12434812;28;20754;-35
2024/03/07 22:27:00;;;;;;;22.27;12.27;;;1.60;99.90;;;;;;12438889;28;20049;-35
2024/03/07 22:33:04;;;;;;;22.67;12.55;;;1.60;99.90;;;;;;12432129;28;20486;-35
2024/03/07 22:39:08;;;;;;;;;;;1.70;99.90;;;;;;12440373;28;20085;-35
2024/03/07 22:45:13;;;;;;;21.58;11.48;;;1.80;99.90;;;;;;12431878;28;19926;-35
2024/03/07 22:51:15;;;;;;;28.77;12.85;;;1.80;99.90;;;;;;12441026;28;20120;-36
2024/03/07 22:57:18;;;;;;;19.35;12.25;;;1.80;99.90;;;;;;12439301;28;20054;-35
2024/03/07 23:03:20;;;;;;;20.08;12.82;;;1.80;99.90;;;;;;12418802;28;20061;-35
2024/03/07 23:09:24;;;;;;;18.45;12.35;;;1.80;99.90;;;;;;12436580;28;20481;-35
2024/03/07 23:15:26;;;;;;;22.65;12.57;;;1.80;99.90;;;;;;12438219;28;20050;-35
2024/03/07 23:21:29;;;;;;;17.75;11.48;;;1.90;99.90;;;;;;12432133;28;20057;-35
2024/03/07 23:27:32;;;;;;;18.83;11.80;;;1.80;99.90;;;;;;12437623;28;20500;-35
2024/03/07 23:33:34;;;;;;;23.15;12.65;;;1.80;99.90;;;;;;12431066;28;20045;-35
2024/03/07 23:39:38;;;;;;;21.33;12.25;;;1.80;99.90;;;;;;12436468;28;20064;-35
2024/03/07 23:45:41;;;;;;;16.52;11.65;;;1.80;99.90;;;;;;12431900;28;20128;-35
2024/03/07 23:51:46;;;;;;;18.20;11.52;;;1.80;99.90;;;;;;12436925;28;20049;-35
2024/03/07 23:57:48;;;;;;;19.52;11.88;;;1.80;99.90;;;;;;12426225;28;20049;-35
